METAR Data
IDs: Format: Raw Decoded Include TAF

Data at: 2057 UTC 18 Sep 2018

KSEE 182047Z 29010KT 10SM SKC 31/09 A2982
KSEE 181947Z 00000KT 10SM SKC 30/08 A2985
KSEE 181847Z VRB06KT 10SM SKC 29/10 A2987
KSEE 181747Z VRB06KT 10SM SKC 26/09 A2989
KSEE 181647Z VRB06KT 10SM SKC 23/08 A2991
KSEE 181547Z 00000KT 10SM SKC 19/11 A2992
KSEE 181447Z 00000KT 10SM SKC 16/11 A2991
KSEE 181347Z 00000KT 10SM SKC 14/11 A2989
KSEE 181335Z AUTO 31004KT 10SM CLR 14/11 A2988 RMK AO2
KSEE 181315Z AUTO 00000KT 10SM CLR 14/11 A2988 RMK AO2
KSEE 181255Z AUTO 30003KT 10SM CLR 14/11 A2988 RMK AO2
KSEE 181235Z AUTO 00000KT 10SM CLR 14/11 A2988 RMK AO2
KSEE 181215Z AUTO 00000KT 10SM CLR 14/11 A2988 RMK AO2
KSEE 181155Z AUTO 30004KT 10SM CLR 14/11 A2988 RMK AO2
KSEE 181135Z AUTO 00000KT 10SM CLR 15/12 A2988 RMK AO2
KSEE 181115Z AUTO 00000KT 10SM CLR 15/12 A2987 RMK AO2
KSEE 181055Z AUTO 29003KT 10SM CLR 15/12 A2987 RMK AO2
KSEE 181035Z AUTO 00000KT 10SM CLR 16/12 A2987 RMK AO2
KSEE 181015Z AUTO 00000KT 10SM CLR 15/12 A2987 RMK AO2
KSEE 180955Z AUTO 00000KT 10SM CLR 16/12 A2987 RMK AO2
KSEE 180935Z AUTO 32003KT 10SM CLR 16/12 A2988 RMK AO2
KSEE 180915Z AUTO 00000KT 10SM CLR 16/12 A2988 RMK AO2
KSEE 180855Z AUTO 32003KT 10SM CLR 17/11 A2989 RMK AO2
KSEE 180835Z AUTO 00000KT 10SM CLR 17/11 A2989 RMK AO2
KSEE 180815Z AUTO 29003KT 10SM CLR 17/12 A2988 RMK AO2
KSEE 180755Z AUTO 32003KT 10SM CLR 17/11 A2989 RMK AO2
KSEE 180735Z AUTO 31004KT 10SM CLR 18/13 A2989 RMK AO2
KSEE 180715Z AUTO 30004KT 10SM CLR 18/13 A2989 RMK AO2
KSEE 180655Z AUTO 30003KT 10SM CLR 18/14 A2989 RMK AO2
KSEE 180635Z AUTO 30003KT 10SM CLR 18/14 A2989 RMK AO2
KSEE 180615Z AUTO 00000KT 10SM CLR 19/14 A2989 RMK AO2
KSEE 180555Z AUTO 00000KT 10SM CLR 19/14 A2989 RMK AO2
KSEE 180535Z AUTO 00000KT 10SM CLR 20/15 A2989 RMK AO2
KSEE 180515Z AUTO 00000KT 10SM CLR 20/15 A2989 RMK AO2
KSEE 180455Z AUTO 28005KT 10SM CLR 20/15 A2989 RMK AO2
KSEE 180435Z AUTO 28005KT 10SM CLR 20/15 A2988 RMK AO2
KSEE 180415Z AUTO 28005KT 10SM CLR 21/15 A2987 RMK AO2
KSEE 180247Z 28006KT 10SM SKC 23/14 A2985
KSEE 180147Z 26008KT 10SM SKC 25/11 A2984
KSEE 180047Z 27009KT 10SM SKC 27/10 A2984
KSEE 172347Z 27009KT 10SM SKC 29/10 A2984
KSEE 172247Z 25009KT 10SM SKC 30/07 A2984
KSEE 172147Z 29008KT 10SM SKC 31/07 A2985
KSEE 172047Z 28010KT 10SM SKC 31/07 A2987
KSEE 171947Z 28010KT 10SM SKC 30/10 A2988
KSEE 171847Z 30010KT 10SM SKC 30/12 A2989
KSEE 171747Z 00000KT 10SM SKC 29/10 A2990
KSEE 171647Z 00000KT 10SM SKC 25/07 A2991
KSEE 171547Z 00000KT 10SM SKC 20/11 A2991
KSEE 171447Z 00000KT 10SM SKC 17/12 A2991
KSEE 171347Z 00000KT 10SM SKC 16/13 A2990
KSEE 171335Z AUTO 00000KT 10SM CLR 16/12 A2989 RMK AO2
KSEE 171315Z AUTO 29004KT 10SM CLR 16/13 A2989 RMK AO2
KSEE 171255Z AUTO 29003KT 10SM CLR 16/13 A2988 RMK AO2
KSEE 171235Z AUTO 00000KT 10SM 16/12 A2988 RMK AO2
KSEE 171215Z AUTO 00000KT 10SM 16/13 A2988 RMK AO2
KSEE 171155Z AUTO 29003KT 10SM CLR 16/13 A2988 RMK AO2
KSEE 171135Z AUTO 00000KT 10SM CLR 17/14 A2987 RMK AO2
KSEE 171115Z AUTO 00000KT 10SM CLR 17/14 A2987 RMK AO2
KSEE 171055Z AUTO 00000KT 10SM CLR 17/14 A2988 RMK AO2
KSEE 171035Z AUTO 30003KT 10SM CLR 17/14 A2988 RMK AO2
KSEE 171015Z AUTO 30004KT 10SM CLR 17/14 A2988 RMK AO2
KSEE 170955Z AUTO 30003KT 10SM CLR 17/13 A2989 RMK AO2
KSEE 170935Z AUTO 29003KT 10SM CLR 18/14 A2989 RMK AO2
KSEE 170915Z AUTO 00000KT 10SM CLR 18/14 A2989 RMK AO2